Time;durP1;ratioP1;P1;durP2;ratioP2;P2;SDS_P1;SDS_P2;PMS_P1;PMS_P2;Temp;Humidity;BMP_temperature;BMP_pressure;BME280_temperature;BME280_humidity;BME280_pressure;Samples;Min_cycle;Max_cycle;Signal;HPM_P1;HPM_P2
2023/07/07 00:00:07;;;;;;;4.53;2.55;;;;;;;10.83;100.00;98979.91;4161138;28;20029;-72
2023/07/07 00:02:08;;;;;;;2.80;2.30;;;;;;;10.76;100.00;98987.28;4161302;28;20347;-72
2023/07/07 00:04:08;;;;;;;4.20;2.67;;;;;;;10.71;100.00;98982.06;4160621;28;20029;-72
2023/07/07 00:06:08;;;;;;;3.92;2.55;;;;;;;10.66;100.00;98980.38;4160573;28;20452;-72
2023/07/07 00:08:11;;;;;;;4.10;2.70;;;;;;;10.59;100.00;98980.25;4159256;28;20041;-72
2023/07/07 00:10:11;;;;;;;2.65;2.38;;;;;;;10.48;100.00;98988.34;4161526;28;20040;-72
2023/07/07 00:12:13;;;;;;;4.90;2.72;;;;;;;10.43;100.00;98988.66;4160580;28;20013;-72
2023/07/07 00:14:13;;;;;;;3.90;2.30;;;;;;;10.39;100.00;98991.31;4156622;28;20021;-72
2023/07/07 00:16:15;;;;;;;4.10;2.50;;;;;;;10.36;100.00;98982.97;4158719;28;20118;-72
2023/07/07 00:18:26;;;;;;;2.97;2.55;;;;;;;10.33;100.00;98986.44;4159652;28;20400;-72
2023/07/07 00:20:26;;;;;;;3.28;2.58;;;;;;;10.32;100.00;98982.88;4159651;28;20052;-72
2023/07/07 00:22:27;;;;;;;3.33;2.80;;;;;;;10.27;100.00;98977.66;4161291;28;20033;-72
2023/07/07 00:24:27;;;;;;;4.75;2.80;;;;;;;10.27;100.00;98991.50;4161096;28;20049;-73
2023/07/07 00:26:28;;;;;;;3.60;2.70;;;;;;;10.24;100.00;98983.91;4159329;28;20033;-71
2023/07/07 00:28:29;;;;;;;5.57;2.78;;;;;;;10.23;100.00;98987.03;4160943;28;20105;-73
2023/07/07 00:30:29;;;;;;;4.55;2.50;;;;;;;10.21;100.00;98990.13;4159180;28;20488;-72
2023/07/07 00:32:31;;;;;;;4.40;2.92;;;;;;;10.18;100.00;98987.28;4158639;28;20045;-73
2023/07/07 00:34:31;;;;;;;4.32;2.63;;;;;;;10.27;100.00;98990.69;4162019;28;20044;-73
2023/07/07 00:36:31;;;;;;;3.35;2.60;;;;;;;10.22;100.00;98986.25;4160703;28;20426;-73
2023/07/07 00:38:32;;;;;;;4.10;2.45;;;;;;;10.19;100.00;98992.47;4160718;28;20883;-73
2023/07/07 00:40:32;;;;;;;3.40;2.47;;;;;;;10.11;100.00;98991.53;4160266;28;20543;-73
2023/07/07 00:42:32;;;;;;;3.33;2.50;;;;;;;10.06;100.00;99002.06;4158907;28;20045;-73
2023/07/07 00:45:07;;;;;;;3.50;2.97;;;;;;;9.98;100.00;98994.75;4162631;28;20495;-72
2023/07/07 00:47:07;;;;;;;5.13;2.80;;;;;;;9.91;100.00;99002.91;4161517;28;20466;-72
2023/07/07 00:49:19;;;;;;;4.45;2.47;;;;;;;9.82;100.00;98998.38;4159041;28;20116;-73
2023/07/07 00:51:27;;;;;;;4.05;2.75;;;;;;;9.79;100.00;99001.88;4158381;28;20050;-73
2023/07/07 00:53:29;;;;;;;4.90;2.67;;;;;;;9.74;100.00;98996.59;4160670;28;20112;-72
2023/07/07 00:55:39;;;;;;;4.78;2.47;;;;;;;9.70;100.00;98998.50;4159577;28;20258;-72
2023/07/07 00:57:39;;;;;;;4.07;2.78;;;;;;;9.69;100.00;98998.88;4157979;28;20095;-73
2023/07/07 00:59:42;;;;;;;4.15;2.58;;;;;;;9.64;100.00;99002.69;4157695;28;20152;-73
2023/07/07 01:01:43;;;;;;;5.03;2.58;;;;;;;9.68;100.00;99002.75;4157311;28;20040;-73
2023/07/07 01:03:56;;;;;;;6.50;2.92;;;;;;;9.67;100.00;99004.72;4156921;28;20121;-73
2023/07/07 01:05:59;;;;;;;4.15;2.55;;;;;;;9.58;100.00;99002.16;4157175;28;20112;-73
2023/07/07 01:08:02;;;;;;;3.67;2.65;;;;;;;9.49;100.00;99000.75;4159276;28;20084;-72
2023/07/07 01:10:02;;;;;;;7.10;3.17;;;;;;;9.43;100.00;99004.94;4158182;28;20494;-73
2023/07/07 01:12:03;;;;;;;4.68;2.63;;;;;;;9.37;100.00;99003.63;4162434;28;20056;-73
2023/07/07 01:14:12;;;;;;;3.53;2.60;;;;;;;9.39;100.00;99006.81;4158972;28;20032;-73
2023/07/07 01:16:25;;;;;;;3.63;2.90;;;;;;;9.32;100.00;98995.59;4159875;28;20037;-73
2023/07/07 01:18:32;;;;;;;4.85;2.70;;;;;;;9.29;100.00;99005.41;4161184;28;20128;-72
2023/07/07 01:20:37;;;;;;;4.03;2.50;;;;;;;9.24;100.00;99011.97;4157466;28;20056;-73
2023/07/07 01:23:02;;;;;;;3.30;2.42;;;;;;;9.19;100.00;98997.66;4158233;28;20046;-73
2023/07/07 01:25:17;;;;;;;3.67;2.50;;;;;;;9.17;100.00;99000.75;4158451;28;20041;-73
2023/07/07 01:27:32;;;;;;;4.40;2.95;;;;;;;9.18;100.00;99004.31;4162811;28;20419;-73
2023/07/07 01:29:44;;;;;;;3.00;2.22;;;;;;;9.14;100.00;99000.69;4164433;28;20509;-73
2023/07/07 01:32:19;;;;;;;4.68;3.30;;;;;;;9.11;100.00;98995.88;4160286;28;20049;-73
2023/07/07 01:34:20;;;;;;;7.00;3.85;;;;;;;9.09;100.00;98995.41;4114096;28;20038;-72
2023/07/07 01:36:20;;;;;;;4.13;2.97;;;;;;;9.09;100.00;98992.66;4163500;28;20071;-72
2023/07/07 01:38:48;;;;;;;3.05;2.30;;;;;;;9.09;100.00;98996.19;4160494;28;20393;-73
2023/07/07 01:41:04;;;;;;;2.85;2.25;;;;;;;9.13;100.00;98990.78;4161983;28;20049;-73
2023/07/07 01:43:14;;;;;;;3.45;2.67;;;;;;;9.13;100.00;98990.78;4170250;28;20075;-72
2023/07/07 01:45:19;;;;;;;4.57;2.60;;;;;;;9.14;100.00;98997.91;4171357;28;20041;-72
2023/07/07 01:47:43;;;;;;;4.72;2.60;;;;;;;9.08;100.00;98997.38;4159053;28;20183;-72
2023/07/07 01:49:54;;;;;;;4.00;2.25;;;;;;;9.00;100.00;98999.13;4159109;28;20045;-72
2023/07/07 01:52:04;;;;;;;2.90;2.40;;;;;;;8.97;100.00;99005.38;4158807;28;20046;-72
2023/07/07 01:54:08;;;;;;;3.03;2.38;;;;;;;8.92;100.00;99007.59;4158290;28;20069;-72
2023/07/07 01:56:11;;;;;;;4.55;2.95;;;;;;;8.90;100.00;99009.91;4157881;28;20029;-72
2023/07/07 01:58:12;;;;;;;3.20;2.50;;;;;;;8.82;100.00;99005.34;4157590;28;20439;-73
2023/07/07 02:00:15;;;;;;;5.30;2.75;;;;;;;8.79;100.00;99004.13;4166160;28;20030;-73
2023/07/07 02:02:15;;;;;;;4.00;2.45;;;;;;;8.82;100.00;99003.41;4162905;28;20036;-73
2023/07/07 02:04:16;;;;;;;3.78;2.70;;;;;;;8.86;100.00;99003.50;4161118;28;20021;-73
2023/07/07 02:06:16;;;;;;;4.07;3.25;;;;;;;8.92;100.00;98996.56;4161751;28;20037;-72
2023/07/07 02:08:16;;;;;;;3.92;2.72;;;;;;;8.98;100.00;99001.47;4160955;28;20021;-72
2023/07/07 02:10:16;;;;;;;3.85;2.50;;;;;;;9.03;100.00;99000.41;4167065;28;20307;-72
2023/07/07 02:12:17;;;;;;;5.47;3.00;;;;;;;9.01;100.00;99003.50;4158589;28;20029;-72
2023/07/07 02:14:17;;;;;;;6.70;3.20;;;;;;;8.96;100.00;99011.25;4158305;28;20032;-72
2023/07/07 02:16:17;;;;;;;6.18;2.88;;;;;;;8.89;100.00;99002.78;4169399;28;20531;-72
2023/07/07 02:18:19;;;;;;;5.13;2.45;;;;;;;8.90;100.00;99002.44;4172780;28;20385;-72
2023/07/07 02:20:20;;;;;;;3.22;2.70;;;;;;;8.90;100.00;99004.38;4164662;28;20389;-72
2023/07/07 02:22:20;;;;;;;3.47;2.55;;;;;;;8.90;100.00;99009.91;4158674;28;20025;-72
2023/07/07 02:24:20;;;;;;;4.05;2.92;;;;;;;8.94;100.00;99002.53;4162338;28;20064;-72
2023/07/07 02:26:21;;;;;;;4.25;3.00;;;;;;;8.97;100.00;99012.84;4171865;28;20477;-72
2023/07/07 02:28:21;;;;;;;3.92;2.50;;;;;;;8.95;100.00;99004.13;4173455;28;20505;-72
2023/07/07 02:30:21;;;;;;;8.00;3.05;;;;;;;8.94;100.00;99008.06;4169486;28;20044;-72
2023/07/07 02:32:22;;;;;;;4.72;3.35;;;;;;;8.89;100.00;99003.59;4166414;28;20495;-72
2023/07/07 02:34:22;;;;;;;3.78;2.88;;;;;;;8.83;100.00;99002.22;4157638;28;20040;-72
2023/07/07 02:36:24;;;;;;;3.88;2.50;;;;;;;8.84;100.00;99001.06;4168750;28;20095;-72
2023/07/07 02:38:24;;;;;;;3.78;2.70;;;;;;;8.83;100.00;99001.44;4171416;28;20516;-72
2023/07/07 02:40:25;;;;;;;4.40;2.97;;;;;;;8.87;100.00;99000.38;4162502;28;20041;-72
2023/07/07 02:42:25;;;;;;;6.10;3.05;;;;;;;8.86;100.00;99000.75;4158172;28;20045;-72
2023/07/07 02:44:26;;;;;;;4.65;2.97;;;;;;;8.83;100.00;98995.91;4157795;28;20473;-72
2023/07/07 02:46:26;;;;;;;4.45;3.30;;;;;;;8.73;100.00;99006.31;4168820;28;20044;-72
2023/07/07 02:48:27;;;;;;;6.07;2.83;;;;;;;8.60;100.00;99003.97;4173636;28;20112;-72
2023/07/07 02:50:27;;;;;;;3.88;2.50;;;;;;;8.53;100.00;98995.50;4160716;28;20081;-72
2023/07/07 02:52:28;;;;;;;3.80;2.83;;;;;;;8.47;100.00;99007.94;4158112;28;20045;-72
2023/07/07 02:54:29;;;;;;;4.00;3.28;;;;;;;8.41;100.00;99008.19;4167723;28;20373;-72
2023/07/07 02:56:29;;;;;;;3.80;2.92;;;;;;;8.35;100.00;99001.31;4158234;28;20049;-72
2023/07/07 02:58:29;;;;;;;4.78;3.00;;;;;;;8.34;100.00;99009.91;4169255;28;20461;-72
2023/07/07 03:00:29;;;;;;;6.03;2.80;;;;;;;8.32;100.00;99001.19;4172390;28;20095;-72
2023/07/07 03:02:30;;;;;;;4.90;3.10;;;;;;;8.26;100.00;98999.81;4173235;28;20061;-72
2023/07/07 03:04:30;;;;;;;5.13;2.55;;;;;;;8.27;100.00;99006.94;4171327;28;20465;-72
2023/07/07 03:06:30;;;;;;;6.53;3.10;;;;;;;8.32;100.00;98998.44;4171860;28;20038;-72
2023/07/07 03:08:31;;;;;;;4.75;2.75;;;;;;;8.33;100.00;99009.09;4168439;28;20081;-72
2023/07/07 03:10:32;;;;;;;3.50;2.85;;;;;;;8.38;100.00;99008.09;4164503;28;20149;-72
2023/07/07 03:12:33;;;;;;;3.88;2.63;;;;;;;8.35;100.00;99015.09;4171318;28;20037;-72
2023/07/07 03:14:33;;;;;;;4.35;2.85;;;;;;;8.31;100.00;99003.13;4167393;28;20496;-72
2023/07/07 03:16:33;;;;;;;7.53;3.20;;;;;;;8.27;100.00;99009.69;4160379;28;20041;-72
2023/07/07 03:18:34;;;;;;;7.55;4.40;;;;;;;8.14;100.00;99006.19;4157314;28;20045;-72
2023/07/07 03:20:35;;;;;;;3.83;2.92;;;;;;;8.10;100.00;99017.09;4157752;28;20037;-72
2023/07/07 03:22:35;;;;;;;4.45;3.13;;;;;;;8.12;100.00;99016.75;4160546;28;20525;-72
2023/07/07 03:24:35;;;;;;;4.47;3.10;;;;;;;8.09;100.00;99014.69;4167468;28;20067;-72
2023/07/07 03:26:36;;;;;;;4.05;2.70;;;;;;;8.11;100.00;99023.44;4158947;28;20044;-72
2023/07/07 03:28:37;;;;;;;4.10;2.72;;;;;;;8.13;100.00;99029.38;4159297;28;20398;-72
2023/07/07 03:30:37;;;;;;;3.70;3.03;;;;;;;8.09;100.00;99021.00;4157284;28;20129;-72
2023/07/07 03:32:37;;;;;;;4.10;3.00;;;;;;;8.08;100.00;99021.34;4157685;28;20428;-72
2023/07/07 03:34:41;;;;;;;3.50;2.70;;;;;;;8.05;100.00;99016.56;4167251;28;20054;-72
2023/07/07 03:36:42;;;;;;;4.82;3.38;;;;;;;8.04;100.00;99029.53;4157532;28;20497;-72
2023/07/07 03:38:42;;;;;;;4.40;2.78;;;;;;;8.03;100.00;99029.88;4157891;28;20083;-72
2023/07/07 03:40:50;;;;;;;4.95;2.80;;;;;;;8.04;100.00;99039.75;4157405;28;20355;-72
2023/07/07 03:42:50;;;;;;;5.88;3.10;;;;;;;8.02;100.00;99034.56;4156056;28;20064;-72
2023/07/07 03:44:50;;;;;;;4.85;3.28;;;;;;;8.02;100.00;99037.31;4160491;28;20176;-72
2023/07/07 03:46:51;;;;;;;4.78;2.92;;;;;;;8.04;100.00;99037.78;4165296;28;20143;-72
2023/07/07 03:48:53;;;;;;;4.95;2.67;;;;;;;8.07;100.00;99041.81;4170091;28;20146;-72
2023/07/07 03:51:03;;;;;;;5.20;3.42;;;;;;;8.13;100.00;99045.94;4171571;28;20036;-72
2023/07/07 03:53:03;;;;;;;4.13;3.08;;;;;;;8.20;100.00;99043.38;4162163;28;20392;-72
2023/07/07 03:55:04;;;;;;;3.50;2.58;;;;;;;8.23;100.00;99042.69;4161700;28;20060;-72
2023/07/07 03:57:05;;;;;;;5.75;2.85;;;;;;;8.25;100.00;99037.63;4167090;28;20084;-72
2023/07/07 03:59:05;;;;;;;5.75;2.85;;;;;;;8.27;100.00;99038.06;4162282;28;20049;-72
2023/07/07 04:01:09;;;;;;;5.25;3.03;;;;;;;8.31;100.00;99038.19;4169149;28;20076;-72
2023/07/07 04:03:09;;;;;;;5.10;2.85;;;;;;;8.35;100.00;99037.16;4161847;28;20429;-72
2023/07/07 04:05:10;;;;;;;4.50;2.72;;;;;;;8.48;100.00;99032.41;4158046;28;20045;-72
2023/07/07 04:07:11;;;;;;;8.85;3.15;;;;;;;8.57;100.00;99030.28;4161921;28;20054;-72
2023/07/07 04:09:11;;;;;;;4.53;2.80;;;;;;;8.68;100.00;99036.91;4155985;28;20045;-72
2023/07/07 04:11:14;;;;;;;7.88;3.20;;;;;;;8.76;100.00;99039.88;4156872;28;20124;-72
2023/07/07 04:13:14;;;;;;;3.85;2.75;;;;;;;8.79;100.00;99041.94;4156846;28;20056;-72
2023/07/07 04:15:16;;;;;;;5.88;3.03;;;;;;;8.85;100.00;99044.06;4156834;28;20419;-72
2023/07/07 04:17:16;;;;;;;6.65;3.22;;;;;;;8.92;100.00;99051.75;4165707;28;20076;-72
2023/07/07 04:19:16;;;;;;;7.75;3.25;;;;;;;9.00;100.00;99042.50;4171942;28;20352;-72
2023/07/07 04:21:20;;;;;;;7.13;3.42;;;;;;;9.07;100.00;99039.94;4171057;28;20434;-72
2023/07/07 04:23:20;;;;;;;4.55;3.58;;;;;;;9.11;100.00;99045.56;4158022;28;20149;-72
2023/07/07 04:25:20;;;;;;;9.07;3.50;;;;;;;9.11;100.00;99045.56;4169758;28;20084;-72
2023/07/07 04:27:21;;;;;;;5.10;3.40;;;;;;;9.09;100.00;99045.09;4160719;28;20044;-72
2023/07/07 04:29:21;;;;;;;4.05;3.03;;;;;;;9.12;100.00;99044.41;4156304;28;20392;-71
2023/07/07 04:31:26;;;;;;;5.00;3.20;;;;;;;9.13;100.00;99048.75;4163064;28;20044;-72
2023/07/07 04:33:28;;;;;;;4.10;3.15;;;;;;;9.16;100.00;99056.31;4157951;28;20041;-71
2023/07/07 04:35:28;;;;;;;7.47;4.23;;;;;;;9.23;100.00;99060.06;4156311;28;20496;-72
2023/07/07 04:37:28;;;;;;;6.40;3.60;;;;;;;9.31;100.00;99046.47;4156324;28;20292;-72
2023/07/07 04:39:28;;;;;;;4.82;3.28;;;;;;;9.42;100.00;99056.59;4158938;28;20041;-72
2023/07/07 04:41:29;;;;;;;8.43;3.70;;;;;;;9.52;100.00;99050.56;4153877;28;20045;-72
2023/07/07 04:43:30;;;;;;;6.80;3.50;;;;;;;9.66;100.00;99052.84;4158994;28;20135;-72
2023/07/07 04:45:33;;;;;;;6.70;3.25;;;;;;;9.76;100.00;99057.03;4156559;28;20053;-72
2023/07/07 04:47:33;;;;;;;4.95;3.45;;;;;;;9.90;100.00;99056.56;4158795;28;20040;-72
2023/07/07 04:49:34;;;;;;;5.35;3.50;;;;;;;10.01;100.00;99055.69;4160200;28;20050;-72
2023/07/07 04:51:36;;;;;;;5.88;3.50;;;;;;;10.11;100.00;99051.53;4157424;28;20414;-72
2023/07/07 04:53:39;;;;;;;5.93;3.50;;;;;;;10.21;100.00;99056.50;4157856;28;20049;-72
2023/07/07 04:55:42;;;;;;;5.53;3.50;;;;;;;10.32;100.00;99070.59;4159207;28;20524;-72
2023/07/07 04:57:43;;;;;;;9.43;4.00;;;;;;;10.38;100.00;99066.38;4160477;28;20053;-72
2023/07/07 04:59:43;;;;;;;6.10;3.58;;;;;;;10.46;100.00;99068.13;4159818;28;20530;-72
2023/07/07 05:01:44;;;;;;;5.50;3.42;;;;;;;10.56;100.00;99066.75;4161659;28;20041;-72
2023/07/07 05:03:45;;;;;;;5.97;3.22;;;;;;;10.66;100.00;99072.50;4160574;28;20511;-72
2023/07/07 05:05:45;;;;;;;5.35;3.47;;;;;;;10.76;100.00;99071.13;4143321;28;20090;-72
2023/07/07 05:07:46;;;;;;;6.97;3.72;;;;;;;10.85;100.00;99066.19;4166726;28;20150;-72
2023/07/07 05:09:46;;;;;;;4.10;3.42;;;;;;;10.97;100.00;99070.75;4164513;28;20087;-72
2023/07/07 05:11:46;;;;;;;5.97;3.78;;;;;;;11.05;100.00;99060.59;4165846;28;20103;-72
2023/07/07 05:13:48;;;;;;;6.75;3.70;;;;;;;11.15;100.00;99069.09;4163069;28;20179;-72
2023/07/07 05:15:48;;;;;;;5.15;3.13;;;;;;;11.27;100.00;99075.66;4161193;28;20310;-72
2023/07/07 05:17:50;;;;;;;9.52;3.85;;;;;;;11.36;100.00;99071.47;4164677;28;20139;-72
2023/07/07 05:19:51;;;;;;;6.57;3.30;;;;;;;11.44;100.00;99072.41;4164249;28;20057;-72
2023/07/07 05:21:51;;;;;;;16.63;3.83;;;;;;;11.50;100.00;99074.50;4162683;28;20279;-72
2023/07/07 05:23:52;;;;;;;5.55;3.60;;;;;;;11.63;100.00;99077.06;4162012;28;20421;-72
2023/07/07 05:25:53;;;;;;;3.80;3.40;;;;;;;11.71;100.00;99067.72;4161933;28;20056;-72
2023/07/07 05:27:53;;;;;;;10.80;4.30;;;;;;;11.79;100.00;99073.00;4159110;28;20038;-72
2023/07/07 05:29:53;;;;;;;7.55;3.90;;;;;;;11.90;100.00;99078.72;4159674;28;20130;-72
2023/07/07 05:31:54;;;;;;;5.40;3.30;;;;;;;12.02;100.00;99077.75;4162000;28;20603;-72
2023/07/07 05:33:54;;;;;;;4.93;3.88;;;;;;;12.13;100.00;99073.13;4159874;28;20063;-72
2023/07/07 05:35:58;;;;;;;9.60;4.32;;;;;;;12.23;100.00;99068.91;4156853;28;20401;-72
2023/07/07 05:38:02;;;;;;;7.45;3.50;;;;;;;12.31;100.00;99074.19;4161484;28;20068;-72
2023/07/07 05:40:03;;;;;;;5.78;3.75;;;;;;;12.40;100.00;99065.59;4159802;28;20390;-72
2023/07/07 05:42:04;;;;;;;9.32;4.05;;;;;;;12.51;100.00;99068.53;4162226;28;20060;-72
2023/07/07 05:44:04;;;;;;;6.18;3.40;;;;;;;12.57;100.00;99073.34;4160568;28;20446;-72
2023/07/07 05:46:08;;;;;;;4.82;3.70;;;;;;;12.65;100.00;99074.25;4164157;28;20636;-72
2023/07/07 05:48:10;;;;;;;5.45;3.65;;;;;;;12.75;100.00;99076.38;4158463;28;20036;-72
2023/07/07 05:50:11;;;;;;;6.47;3.92;;;;;;;12.86;100.00;99079.28;4161905;28;20383;-72
2023/07/07 05:52:14;;;;;;;6.00;3.30;;;;;;;12.96;100.00;99078.59;4160104;28;20513;-72
2023/07/07 05:54:14;;;;;;;7.68;3.90;;;;;;;13.05;100.00;99083.84;4162341;28;20029;-72
2023/07/07 05:56:20;;;;;;;4.00;3.58;;;;;;;13.09;100.00;99082.72;4162366;28;20025;-72
2023/07/07 05:58:20;;;;;;;5.50;3.53;;;;;;;13.24;100.00;99083.69;4161191;28;20528;-72
2023/07/07 06:00:21;;;;;;;7.95;3.63;;;;;;;13.36;100.00;99080.63;4164876;28;20049;-72
2023/07/07 06:02:21;;;;;;;7.57;4.03;;;;;;;13.45;100.00;99089.47;4163679;28;20094;-72
2023/07/07 06:04:21;;;;;;;6.20;3.85;;;;;;;13.53;100.00;99079.22;4160876;28;20292;-72
2023/07/07 06:06:22;;;;;;;7.53;3.60;;;;;;;13.60;100.00;99089.59;4161915;28;20050;-72
2023/07/07 06:08:22;;;;;;;6.85;3.70;;;;;;;13.66;100.00;99088.88;4164751;28;20045;-72
2023/07/07 06:10:24;;;;;;;14.27;4.15;;;;;;;13.75;100.00;99091.31;4163140;28;20373;-72
2023/07/07 06:12:24;;;;;;;7.47;3.75;;;;;;;13.84;100.00;99083.47;4161525;28;20088;-72
2023/07/07 06:14:25;;;;;;;5.60;3.25;;;;;;;13.92;100.00;99085.13;4161771;28;20470;-72
2023/07/07 06:16:25;;;;;;;4.70;3.15;;;;;;;14.03;100.00;99083.19;4162327;28;20080;-72
2023/07/07 06:18:26;;;;;;;4.80;3.25;;;;;;;14.13;100.00;99078.09;4160760;28;20095;-72
2023/07/07 06:20:26;;;;;;;7.53;3.55;;;;;;;14.25;100.00;99081.38;4158106;28;20072;-72
2023/07/07 06:22:26;;;;;;;4.55;3.05;;;;;;;14.32;100.00;99086.19;4162632;28;20119;-72
2023/07/07 06:24:28;;;;;;;5.93;3.25;;;;;;;14.41;99.98;99085.84;4159919;28;20037;-72
2023/07/07 06:26:29;;;;;;;5.82;2.83;;;;;;;14.47;100.00;99085.09;4162034;28;20053;-72
2023/07/07 06:28:29;;;;;;;4.45;3.13;;;;;;;14.59;100.00;99090.34;4163581;28;20038;-72
2023/07/07 06:30:30;;;;;;;3.70;2.80;;;;;;;14.70;99.83;99086.81;4162934;28;20077;-72
2023/07/07 06:32:30;;;;;;;3.85;3.00;;;;;;;14.77;98.37;99090.41;4162680;28;20099;-73
2023/07/07 06:34:30;;;;;;;4.60;3.25;;;;;;;14.93;95.87;99089.28;4160751;28;20060;-72
2023/07/07 06:36:31;;;;;;;6.57;2.92;;;;;;;15.02;95.39;99092.50;4158301;28;20056;-72
2023/07/07 06:38:31;;;;;;;4.15;2.67;;;;;;;15.12;94.77;99086.16;4158037;28;20047;-73
2023/07/07 06:40:31;;;;;;;3.47;2.60;;;;;;;15.21;92.77;99086.59;4158531;28;20814;-73
2023/07/07 06:42:32;;;;;;;5.32;3.13;;;;;;;15.30;94.12;99089.78;4157555;28;20064;-73
2023/07/07 06:44:38;;;;;;;4.47;2.40;;;;;;;15.37;92.84;99083.44;4168900;28;20049;-72
2023/07/07 06:46:38;;;;;;;4.90;2.50;;;;;;;15.47;91.74;99085.44;4158416;28;20041;-72
2023/07/07 06:48:38;;;;;;;5.97;3.00;;;;;;;15.52;91.69;99089.84;4162279;28;20049;-72
2023/07/07 06:50:41;;;;;;;5.75;2.53;;;;;;;15.60;92.15;99085.88;4161527;28;20037;-73
2023/07/07 06:52:41;;;;;;;;;;;;;;;15.68;91.27;99081.91;4152587;28;20060;-73
2023/07/07 06:54:41;;;;;;;5.97;2.60;;;;;;;15.75;90.45;99083.91;4151855;28;19925;-72
2023/07/07 06:56:42;;;;;;;5.93;3.60;;;;;;;15.85;90.00;99088.69;4157917;28;20290;-73
2023/07/07 06:58:42;;;;;;;11.57;3.22;;;;;;;15.90;90.44;99091.91;4162066;28;20033;-72
2023/07/07 07:00:43;;;;;;;5.78;2.63;;;;;;;15.92;89.20;99089.50;4158576;28;20037;-72
2023/07/07 07:02:44;;;;;;;5.18;2.60;;;;;;;15.96;89.22;99081.13;4162837;28;20051;-72
2023/07/07 07:04:45;;;;;;;3.90;2.72;;;;;;;16.03;89.15;99092.28;4156344;28;20048;-72
2023/07/07 07:06:45;;;;;;;5.72;2.80;;;;;;;16.12;88.82;99084.28;4160013;28;20049;-72
2023/07/07 07:08:45;;;;;;;6.93;3.00;;;;;;;16.30;86.93;99087.06;4164552;28;20051;-72
2023/07/07 07:10:46;;;;;;;4.85;2.90;;;;;;;16.35;87.11;99083.88;4162460;28;20458;-72
2023/07/07 07:12:47;;;;;;;4.50;2.95;;;;;;;16.43;87.09;99079.06;4161803;28;20488;-72
2023/07/07 07:14:47;;;;;;;4.65;2.95;;;;;;;16.54;88.13;99085.41;4173236;28;20041;-72
2023/07/07 07:16:48;;;;;;;6.50;2.95;;;;;;;16.67;87.20;99083.78;4172769;28;20274;-72
2023/07/07 07:18:48;;;;;;;4.57;2.60;;;;;;;16.74;87.02;99072.59;4172259;28;20223;-72
2023/07/07 07:20:49;;;;;;;3.40;2.70;;;;;;;16.96;88.62;99070.50;4171183;28;20052;-72
2023/07/07 07:22:50;;;;;;;5.43;2.80;;;;;;;17.15;85.13;99077.63;4163299;28;20033;-72
2023/07/07 07:24:51;;;;;;;8.95;2.97;;;;;;;17.31;83.14;99074.34;4157572;28;20045;-72
2023/07/07 07:26:51;;;;;;;3.70;2.42;;;;;;;17.35;83.65;99070.28;4157018;28;20104;-72
2023/07/07 07:28:52;;;;;;;4.32;2.97;;;;;;;17.44;83.38;99074.63;4157890;28;20108;-72
2023/07/07 07:30:52;;;;;;;7.28;2.75;;;;;;;17.46;83.18;99078.63;4157818;28;20416;-72
2023/07/07 07:32:52;;;;;;;4.85;3.10;;;;;;;17.50;82.75;99076.59;4156782;28;20029;-72
2023/07/07 07:34:53;;;;;;;15.35;3.60;;;;;;;17.66;81.57;99081.69;4157296;28;20039;-72
2023/07/07 07:36:55;;;;;;;5.28;2.47;;;;;;;17.86;81.32;99087.53;4157543;28;20397;-72
2023/07/07 07:38:55;;;;;;;5.95;2.60;;;;;;;17.98;81.14;99066.66;4157462;28;20056;-72
2023/07/07 07:40:55;;;;;;;4.35;2.72;;;;;;;18.09;82.16;99073.75;4157042;28;20053;-72
2023/07/07 07:42:55;;;;;;;5.78;2.60;;;;;;;18.24;82.55;99080.00;4156853;28;20037;-72
2023/07/07 07:44:56;;;;;;;4.40;2.55;;;;;;;18.42;80.45;99079.84;4158026;28;20094;-73
2023/07/07 07:46:58;;;;;;;5.03;2.75;;;;;;;18.47;78.96;99085.00;4157296;28;20084;-73
2023/07/07 07:48:58;;;;;;;4.38;2.80;;;;;;;18.45;78.40;99079.00;4157058;28;20528;-73
2023/07/07 07:50:58;;;;;;;3.83;2.50;;;;;;;18.47;78.51;99079.38;4157540;28;20115;-72
2023/07/07 07:53:00;;;;;;;3.22;2.28;;;;;;;18.50;78.24;99073.72;4156403;28;20089;-72
2023/07/07 07:55:00;;;;;;;3.90;2.30;;;;;;;18.62;78.21;99068.78;4157068;28;20089;-73
2023/07/07 07:57:00;;;;;;;4.93;2.30;;;;;;;18.73;78.61;99075.13;4160650;28;20054;-72
2023/07/07 07:59:01;;;;;;;3.35;2.50;;;;;;;18.88;76.83;99068.13;4157077;28;20373;-72
2023/07/07 08:01:02;;;;;;;5.30;2.70;;;;;;;18.97;75.77;99065.59;4157154;28;20112;-72
2023/07/07 08:03:02;;;;;;;2.95;2.55;;;;;;;19.11;74.19;99066.63;4156267;28;20037;-72
2023/07/07 08:05:03;;;;;;;3.22;2.70;;;;;;;19.17;74.30;99064.94;4157207;28;20237;-72
2023/07/07 08:07:04;;;;;;;4.47;2.33;;;;;;;19.26;73.90;99065.22;4156854;28;20037;-73
2023/07/07 08:09:05;;;;;;;3.05;2.10;;;;;;;19.36;73.95;99067.88;4156756;28;20369;-73
2023/07/07 08:11:05;;;;;;;3.95;2.40;;;;;;;19.59;72.49;99060.75;4169728;28;20056;-72
2023/07/07 08:13:06;;;;;;;3.05;2.50;;;;;;;19.72;72.25;99064.56;4163604;28;20040;-73
2023/07/07 08:15:06;;;;;;;4.38;2.35;;;;;;;19.91;73.35;99065.84;4171407;28;20048;-73
2023/07/07 08:17:10;;;;;;;3.92;2.60;;;;;;;20.06;72.85;99066.41;4171428;28;20095;-73
2023/07/07 08:19:10;;;;;;;3.65;2.72;;;;;;;20.17;70.04;99064.97;4171682;28;20053;-73
2023/07/07 08:21:10;;;;;;;7.75;3.08;;;;;;;20.24;69.70;99066.06;4172438;28;20080;-73
2023/07/07 08:23:11;;;;;;;5.60;2.80;;;;;;;20.27;69.75;99074.44;4166389;28;20083;-73
2023/07/07 08:25:11;;;;;;;3.33;2.20;;;;;;;20.33;69.09;99069.91;4156949;28;20136;-73
2023/07/07 08:27:13;;;;;;;5.72;2.40;;;;;;;20.41;68.65;99076.19;4157231;28;20117;-73
2023/07/07 08:29:14;;;;;;;3.08;2.10;;;;;;;20.46;69.16;99075.75;4156600;28;20087;-73
2023/07/07 08:31:14;;;;;;;3.42;2.20;;;;;;;20.57;67.11;99067.88;4162068;28;20118;-73
2023/07/07 08:33:15;;;;;;;4.13;2.10;;;;;;;20.67;65.59;99066.88;4171195;28;20757;-73
2023/07/07 08:35:15;;;;;;;3.47;2.20;;;;;;;20.78;63.89;99068.69;4156386;28;20128;-73
2023/07/07 08:37:17;;;;;;;3.78;2.33;;;;;;;20.79;66.83;99067.47;4156738;28;20454;-73
2023/07/07 08:39:19;;;;;;;5.97;2.40;;;;;;;20.90;66.15;99068.81;4164242;28;20481;-73
2023/07/07 08:41:20;;;;;;;;;;;;;;;21.11;63.92;99066.81;4166836;28;20044;-73
2023/07/07 08:43:21;;;;;;;3.15;2.28;;;;;;;21.26;60.63;99070.88;4170322;28;19917;-73
2023/07/07 08:45:23;;;;;;;3.65;2.20;;;;;;;21.28;60.43;99057.19;4171465;28;20045;-73
2023/07/07 08:47:23;;;;;;;3.22;2.25;;;;;;;21.36;60.35;99063.47;4171751;28;20140;-73
2023/07/07 08:49:49;;;;;;;2.33;1.73;;;;;;;21.54;59.37;99064.63;4166752;28;20073;-73
2023/07/07 08:51:57;;;;;;;4.93;2.00;;;;;;;21.50;59.40;99058.28;4156462;28;20041;-73
2023/07/07 08:54:05;;;;;;;2.63;1.85;;;;;;;21.39;61.69;99059.75;4155603;28;20037;-73
2023/07/07 08:56:24;;;;;;;3.95;2.13;;;;;;;21.41;59.11;99072.16;4155261;28;20409;-73
2023/07/07 08:58:37;;;;;;;3.53;2.08;;;;;;;21.52;56.62;99066.31;4171337;28;20371;-73
2023/07/07 09:01:02;;;;;;;3.58;1.80;;;;;;;21.58;57.20;99064.53;4170517;28;20052;-73
2023/07/07 09:03:24;;;;;;;4.68;1.98;;;;;;;21.66;56.41;99065.94;4155620;28;20108;-73
2023/07/07 09:05:55;;;;;;;4.40;2.30;;;;;;;21.76;55.55;99067.75;4155482;28;20057;-73
2023/07/07 09:08:05;;;;;;;2.92;1.98;;;;;;;21.80;59.29;99067.63;4155558;28;20041;-73
2023/07/07 09:10:27;;;;;;;4.25;2.08;;;;;;;21.94;58.49;99066.50;4156845;28;20473;-73
2023/07/07 09:12:41;;;;;;;3.13;2.00;;;;;;;22.02;55.28;99067.91;4164808;28;20052;-73
2023/07/07 09:14:45;;;;;;;3.72;2.17;;;;;;;22.13;56.25;99065.63;4164610;28;20124;-73
2023/07/07 09:16:47;;;;;;;6.15;2.30;;;;;;;22.21;55.88;99052.94;4159036;28;20045;-73
2023/07/07 09:18:56;;;;;;;7.18;2.38;;;;;;;22.34;54.14;99058.63;4171450;28;20048;-73
2023/07/07 09:21:00;;;;;;;2.55;2.10;;;;;;;22.45;54.48;99058.34;4155536;28;20060;-73
2023/07/07 09:23:11;;;;;;;4.57;2.10;;;;;;;22.62;54.67;99063.50;4155334;28;20416;-73
2023/07/07 09:25:30;;;;;;;5.22;2.00;;;;;;;22.69;52.90;99057.66;4155921;28;20053;-73
2023/07/07 09:27:44;;;;;;;2.53;2.28;;;;;;;22.66;52.77;99057.75;4156986;28;20069;-73
2023/07/07 09:29:45;;;;;;;2.97;2.05;;;;;;;22.80;52.93;99051.69;4156212;28;20476;-73
2023/07/07 09:31:46;;;;;;;2.88;1.92;;;;;;;22.74;52.26;99047.06;4156471;28;20350;-73
2023/07/07 09:33:46;;;;;;;2.80;2.28;;;;;;;22.77;53.75;99054.63;4155649;28;20107;-73
2023/07/07 09:36:37;;;;;;;3.30;2.10;;;;;;;22.81;55.69;99052.50;4159288;28;20091;-73